createdAt,value
2022-10-13T00:01:26.876Z,74.47
2022-10-13T00:03:56.174Z,74.55
2022-10-13T00:06:27.176Z,74.53
2022-10-13T00:08:57.191Z,74.41
2022-10-13T00:11:28.274Z,74.60
2022-10-13T00:13:59.839Z,74.79
2022-10-13T00:16:32.409Z,74.57
2022-10-13T00:19:01.309Z,74.54
2022-10-13T00:21:31.034Z,74.40
2022-10-13T00:24:00.131Z,74.50
2022-10-13T00:26:29.035Z,74.47
2022-10-13T00:28:58.117Z,74.44
2022-10-13T00:31:30.231Z,74.03
2022-10-13T00:34:00.642Z,74.37
2022-10-13T00:36:30.775Z,74.28
2022-10-13T00:38:59.991Z,73.83
2022-10-13T00:41:28.793Z,74.05
2022-10-13T00:44:02.469Z,73.94
2022-10-13T00:46:35.282Z,73.98
2022-10-13T00:49:10.377Z,74.12
2022-10-13T00:51:44.115Z,74.00
2022-10-13T00:54:17.021Z,72.88
2022-10-13T00:56:47.224Z,72.68
2022-10-13T00:59:27.352Z,71.85
2022-10-13T01:01:58.704Z,71.96
2022-10-13T01:04:32.649Z,72.53
2022-10-13T01:07:03.334Z,72.28
2022-10-13T01:09:38.322Z,72.86
2022-10-13T01:12:18.311Z,72.15
2022-10-13T01:14:56.592Z,72.68
2022-10-13T01:17:56.145Z,72.57
2022-10-13T01:21:02.476Z,72.72
2022-10-13T01:23:41.080Z,72.93
2022-10-13T01:26:37.875Z,72.90
2022-10-13T01:29:27.532Z,73.07
2022-10-13T01:32:20.981Z,73.47
2022-10-13T01:34:55.108Z,72.91
2022-10-13T01:37:36.381Z,72.92
2022-10-13T01:40:34.046Z,72.66
2022-10-13T01:43:09.512Z,72.70
2022-10-13T01:45:45.808Z,72.69
2022-10-13T01:48:16.255Z,72.55
2022-10-13T01:50:52.971Z,72.58
2022-10-13T01:53:23.152Z,72.10
2022-10-13T01:56:01.125Z,71.74
2022-10-13T01:58:34.037Z,71.21
2022-10-13T02:01:24.310Z,70.56
2022-10-13T02:04:14.483Z,70.37
2022-10-13T02:06:58.667Z,69.43
2022-10-13T02:09:36.422Z,67.06
2022-10-13T02:12:12.958Z,65.05
2022-10-13T02:14:44.980Z,62.46
2022-10-13T02:17:14.284Z,60.83
2022-10-13T02:19:45.086Z,61.74
2022-10-13T02:22:17.299Z,61.81
2022-10-13T02:24:46.337Z,63.24
2022-10-13T02:27:15.718Z,63.66
2022-10-13T02:29:57.004Z,62.65
2022-10-13T02:32:32.955Z,60.28
2022-10-13T02:35:01.853Z,60.11
2022-10-13T02:37:31.638Z,59.82
2022-10-13T02:40:00.401Z,59.12
2022-10-13T02:42:29.214Z,60.94
2022-10-13T02:45:00.373Z,61.63
2022-10-13T02:47:29.190Z,61.81
2022-10-13T02:49:58.093Z,63.45
2022-10-13T02:52:26.891Z,63.41
2022-10-13T02:54:55.736Z,64.28
2022-10-13T02:57:24.807Z,65.57
2022-10-13T02:59:54.413Z,65.12
2022-10-13T03:02:24.768Z,64.78
2022-10-13T03:04:54.313Z,62.21
2022-10-13T03:07:23.189Z,60.50
2022-10-13T03:09:52.103Z,58.16
2022-10-13T03:12:21.034Z,56.45
2022-10-13T03:14:50.183Z,56.33
2022-10-13T03:17:19.013Z,57.09
2022-10-13T03:19:47.991Z,58.63
2022-10-13T03:22:19.910Z,59.53
2022-10-13T03:24:48.867Z,60.25
2022-10-13T03:27:17.681Z,61.15
2022-10-13T03:29:46.484Z,62.08
2022-10-13T03:32:15.299Z,62.24
2022-10-13T03:34:44.145Z,62.94
2022-10-13T03:37:12.974Z,62.16
2022-10-13T03:39:43.489Z,62.28
2022-10-13T03:42:13.472Z,62.40
2022-10-13T03:44:42.940Z,62.17
2022-10-13T03:47:11.783Z,61.96
2022-10-13T03:49:40.900Z,62.29
2022-10-13T03:52:09.938Z,61.83
2022-10-13T03:54:38.792Z,61.44
2022-10-13T03:57:08.001Z,62.46
2022-10-13T03:59:37.228Z,62.15
2022-10-13T04:02:06.523Z,61.63
2022-10-13T04:04:36.202Z,61.04
2022-10-13T04:07:05.089Z,61.04
2022-10-13T04:09:34.265Z,60.38
2022-10-13T04:12:03.025Z,59.86
2022-10-13T04:14:31.828Z,60.55
2022-10-13T04:17:07.069Z,61.03
2022-10-13T04:19:35.983Z,61.54
2022-10-13T04:22:07.597Z,61.48
2022-10-13T04:24:37.014Z,61.23
2022-10-13T04:27:05.756Z,61.33
2022-10-13T04:29:34.588Z,61.53
2022-10-13T04:32:03.404Z,61.28
2022-10-13T04:34:32.176Z,61.92
2022-10-13T04:37:01.255Z,62.19
2022-10-13T04:39:30.175Z,62.27
2022-10-13T04:41:59.186Z,62.38
2022-10-13T04:44:28.245Z,62.30
2022-10-13T04:46:57.261Z,62.47
2022-10-13T04:49:26.208Z,62.69
2022-10-13T04:51:55.173Z,62.86
2022-10-13T04:54:24.067Z,62.16
2022-10-13T04:56:52.847Z,61.89
2022-10-13T04:59:21.883Z,61.70
2022-10-13T05:01:51.889Z,61.69
2022-10-13T05:04:20.797Z,61.68
2022-10-13T05:07:15.929Z,62.03
2022-10-13T05:09:38.711Z,62.23
2022-10-13T05:12:12.304Z,61.91
2022-10-13T05:14:41.329Z,61.42
2022-10-13T05:17:10.295Z,61.40
2022-10-13T05:19:39.102Z,60.76
2022-10-13T05:22:07.971Z,60.64
2022-10-13T05:24:39.757Z,61.07
2022-10-13T05:27:11.611Z,61.64
2022-10-13T05:29:41.152Z,61.69
2022-10-13T05:32:10.079Z,61.52
2022-10-13T05:34:38.987Z,61.58
2022-10-13T05:37:07.860Z,62.12
2022-10-13T05:39:36.622Z,62.04
2022-10-13T05:42:05.842Z,61.59
2022-10-13T05:44:36.899Z,61.74
2022-10-13T05:47:07.697Z,61.53
2022-10-13T05:49:42.667Z,61.08
2022-10-13T05:52:13.782Z,61.14
2022-10-13T05:54:47.432Z,61.49
2022-10-13T05:57:27.261Z,63.17
2022-10-13T06:00:16.284Z,62.77
2022-10-13T06:03:08.255Z,63.51
2022-10-13T06:05:37.890Z,63.02
2022-10-13T06:08:06.853Z,62.64
2022-10-13T06:10:38.269Z,62.86
2022-10-13T06:13:07.040Z,63.39
2022-10-13T06:15:35.898Z,62.83
2022-10-13T06:18:09.750Z,63.57
2022-10-13T06:20:38.802Z,63.88
2022-10-13T06:23:07.577Z,63.54
2022-10-13T06:25:37.161Z,61.86
2022-10-13T06:28:05.979Z,59.58
2022-10-13T06:30:34.762Z,60.22
2022-10-13T06:33:03.607Z,61.36
2022-10-13T06:35:33.569Z,61.89
2022-10-13T06:38:03.235Z,59.84
2022-10-13T06:40:32.879Z,57.37
2022-10-13T06:43:01.784Z,57.57
2022-10-13T06:45:30.658Z,59.03
2022-10-13T06:47:59.443Z,57.46
2022-10-13T06:50:28.405Z,56.33
2022-10-13T06:52:58.221Z,53.76
2022-10-13T06:55:27.143Z,52.04
2022-10-13T06:57:55.948Z,51.41
2022-10-13T07:00:25.277Z,50.59
2022-10-13T07:02:54.512Z,50.78
2022-10-13T07:05:23.397Z,50.12
2022-10-13T07:07:55.350Z,47.90
2022-10-13T07:10:24.537Z,46.86
2022-10-13T07:12:53.376Z,47.04
2022-10-13T07:15:25.391Z,49.13
2022-10-13T07:17:55.702Z,51.22
2022-10-13T07:20:25.461Z,53.04
2022-10-13T07:22:55.139Z,53.88
2022-10-13T07:25:25.333Z,52.49
2022-10-13T07:27:54.167Z,49.47
2022-10-13T07:30:23.341Z,48.66
2022-10-13T07:32:52.434Z,47.06
2022-10-13T07:35:25.780Z,45.98
2022-10-13T07:37:57.037Z,44.29
2022-10-13T07:40:25.959Z,44.36
2022-10-13T07:42:57.538Z,45.22
2022-10-13T07:45:27.163Z,44.77
2022-10-13T07:47:56.663Z,46.27
2022-10-13T07:50:25.529Z,45.62
2022-10-13T07:52:54.466Z,42.25
2022-10-13T07:55:23.283Z,41.02
2022-10-13T07:57:56.144Z,40.45
2022-10-13T08:00:26.013Z,40.31
2022-10-13T08:02:54.900Z,40.58
2022-10-13T08:05:23.875Z,40.97
2022-10-13T08:07:54.770Z,40.32
2022-10-13T08:10:29.951Z,41.47
2022-10-13T08:12:58.769Z,42.13
2022-10-13T08:15:27.613Z,43.27
2022-10-13T08:17:56.520Z,42.58
2022-10-13T08:20:36.145Z,42.89
2022-10-13T08:23:14.745Z,45.01
2022-10-13T08:25:50.416Z,47.20
2022-10-13T08:28:26.530Z,48.96
2022-10-13T08:30:58.624Z,49.84
2022-10-13T08:33:28.098Z,50.57
2022-10-13T08:35:57.519Z,50.38
2022-10-13T08:38:28.167Z,47.88
2022-10-13T08:40:57.045Z,46.07
2022-10-13T08:43:26.945Z,45.54
2022-10-13T08:46:00.482Z,45.93
2022-10-13T08:48:37.529Z,47.25
2022-10-13T08:51:08.451Z,49.18
2022-10-13T08:53:43.511Z,50.27
2022-10-13T08:56:19.843Z,50.88
2022-10-13T08:58:51.112Z,51.99
2022-10-13T09:01:24.845Z,52.33
2022-10-13T09:03:57.967Z,53.22
2022-10-13T09:06:37.471Z,53.15
2022-10-13T09:09:11.432Z,53.58
2022-10-13T09:11:46.832Z,54.03
2022-10-13T09:14:28.490Z,54.02
2022-10-13T09:20:02.870Z,54.52
2022-10-13T09:22:38.331Z,55.47
2022-10-13T09:25:21.210Z,55.66
2022-10-13T09:27:57.724Z,55.81
2022-10-13T09:30:40.244Z,55.88
2022-10-13T09:33:12.804Z,56.25
2022-10-13T09:35:44.912Z,56.41
2022-10-13T09:38:25.745Z,56.10
2022-10-13T09:41:16.563Z,56.56
2022-10-13T09:43:48.423Z,56.88
2022-10-13T09:46:51.154Z,56.73
2022-10-13T09:49:39.847Z,57.26
2022-10-13T09:52:19.443Z,57.50
2022-10-13T09:54:54.785Z,57.77
2022-10-13T09:57:36.495Z,57.85
2022-10-13T10:00:17.183Z,58.08
2022-10-13T10:02:55.455Z,58.29
2022-10-13T10:05:26.954Z,59.00
2022-10-13T10:08:04.875Z,59.29
2022-10-13T10:10:37.656Z,60.27
2022-10-13T10:13:13.754Z,60.06
2022-10-13T10:16:04.939Z,60.33
2022-10-13T10:18:54.999Z,60.58
2022-10-13T10:21:37.482Z,61.26
2022-10-13T10:24:31.692Z,61.33
2022-10-13T10:27:03.618Z,61.80
2022-10-13T10:29:51.248Z,62.40
2022-10-13T10:32:54.537Z,62.48
2022-10-13T10:35:36.085Z,63.05
2022-10-13T10:38:26.891Z,64.03
2022-10-13T10:41:17.266Z,63.98
2022-10-13T10:44:11.502Z,64.34
2022-10-13T10:46:47.808Z,64.83
2022-10-13T10:49:26.439Z,64.81
2022-10-13T10:51:55.959Z,64.73
2022-10-13T10:54:52.120Z,65.43
2022-10-13T10:57:40.772Z,65.19
2022-10-13T11:00:15.175Z,65.66
2022-10-13T11:03:08.906Z,65.58
2022-10-13T11:06:01.156Z,65.73
2022-10-13T11:08:41.171Z,65.67
2022-10-13T11:11:33.576Z,65.14
2022-10-13T11:14:08.815Z,65.82
2022-10-13T11:16:40.803Z,65.88
2022-10-13T11:19:33.597Z,65.72
2022-10-13T11:22:02.397Z,65.53
2022-10-13T11:24:42.376Z,66.00
2022-10-13T11:27:16.116Z,65.81
2022-10-13T11:29:47.867Z,66.43
2022-10-13T11:32:31.628Z,66.63
2022-10-13T11:35:18.821Z,66.26
2022-10-13T11:38:07.199Z,66.47
2022-10-13T11:40:59.401Z,66.41
2022-10-13T11:43:44.128Z,66.23
2022-10-13T11:46:15.781Z,66.05
2022-10-13T11:49:05.670Z,65.72
2022-10-13T11:51:46.456Z,65.91
2022-10-13T11:54:21.137Z,65.99
2022-10-13T11:56:55.587Z,66.13
2022-10-13T11:59:36.245Z,67.01
2022-10-13T12:02:11.765Z,67.02
2022-10-13T12:04:46.514Z,67.15
2022-10-13T12:07:17.966Z,66.92
2022-10-13T12:09:58.169Z,66.99
2022-10-13T12:12:27.876Z,67.44
2022-10-13T12:15:01.098Z,67.39
2022-10-13T12:17:39.480Z,67.33
2022-10-13T12:20:30.220Z,67.43
2022-10-13T12:22:59.389Z,67.93
2022-10-13T12:25:31.066Z,68.02
2022-10-13T12:28:01.599Z,68.18
2022-10-13T12:30:36.851Z,68.53
2022-10-13T12:33:23.553Z,68.64
2022-10-13T12:35:52.483Z,68.41
2022-10-13T12:38:23.188Z,67.85
2022-10-13T12:40:54.216Z,68.35
2022-10-13T12:43:26.858Z,68.13
2022-10-13T12:45:55.845Z,67.95
2022-10-13T12:48:37.503Z,68.29
2022-10-13T12:51:32.893Z,67.82
2022-10-13T12:54:06.787Z,68.18
2022-10-13T12:56:35.785Z,68.32
2022-10-13T12:59:05.236Z,68.08
2022-10-13T13:01:35.921Z,68.21
2022-10-13T13:04:22.372Z,68.03
2022-10-13T13:06:57.036Z,67.98
2022-10-13T13:09:39.410Z,67.55
2022-10-13T13:12:14.076Z,67.26
2022-10-13T13:14:45.203Z,67.37
2022-10-13T13:17:38.894Z,67.47
2022-10-13T13:20:27.809Z,67.44
2022-10-13T13:22:56.993Z,67.67
2022-10-13T13:25:26.060Z,67.52
2022-10-13T13:27:55.214Z,67.78
2022-10-13T13:30:25.115Z,67.73
2022-10-13T13:32:54.027Z,67.79
2022-10-13T13:35:22.943Z,68.11
2022-10-13T13:37:53.710Z,68.35
2022-10-13T13:40:25.419Z,68.01
2022-10-13T13:42:55.165Z,67.89
2022-10-13T13:45:27.270Z,68.38
2022-10-13T13:48:00.534Z,68.58
2022-10-13T13:50:35.642Z,68.27
2022-10-13T13:53:06.113Z,68.72
2022-10-13T13:55:35.042Z,68.38
2022-10-13T13:58:07.200Z,68.56
2022-10-13T14:00:37.317Z,68.38
2022-10-13T14:03:06.303Z,68.12
2022-10-13T14:05:39.061Z,68.21
2022-10-13T14:08:08.615Z,68.44
2022-10-13T14:10:42.295Z,68.51
2022-10-13T14:13:11.111Z,68.67
2022-10-13T14:15:39.934Z,68.88
2022-10-13T14:18:08.819Z,68.83
2022-10-13T14:20:42.707Z,69.07
2022-10-13T14:23:11.612Z,69.03
2022-10-13T14:25:40.665Z,69.22
2022-10-13T14:28:09.519Z,69.10
2022-10-13T14:30:42.412Z,68.82
2022-10-13T14:33:11.403Z,68.89
2022-10-13T14:35:40.281Z,68.96
2022-10-13T14:38:11.886Z,69.12
2022-10-13T14:40:43.204Z,69.28
2022-10-13T14:43:12.087Z,69.44
2022-10-13T14:45:41.019Z,69.47
2022-10-13T14:48:12.824Z,69.75
2022-10-13T14:50:41.754Z,69.52
2022-10-13T14:53:15.864Z,69.50
2022-10-13T14:55:45.946Z,69.27
2022-10-13T14:58:14.992Z,69.84
2022-10-13T15:00:44.858Z,69.55
2022-10-13T15:03:13.907Z,69.57
2022-10-13T15:05:42.733Z,69.58
2022-10-13T15:08:11.560Z,70.02
2022-10-13T15:10:40.360Z,69.74
2022-10-13T15:13:09.225Z,69.56
2022-10-13T15:15:38.039Z,69.71
2022-10-13T15:18:06.997Z,69.79
2022-10-13T15:20:35.814Z,70.03
2022-10-13T15:23:05.835Z,70.06
2022-10-13T15:25:34.718Z,70.25
2022-10-13T15:28:06.710Z,70.38
2022-10-13T15:30:35.579Z,70.01
2022-10-13T15:33:10.511Z,69.96
2022-10-13T15:35:39.462Z,70.58
2022-10-13T15:38:08.422Z,70.00
2022-10-13T15:40:41.513Z,70.06
2022-10-13T15:43:10.476Z,70.72
2022-10-13T15:45:39.759Z,70.83
2022-10-13T15:48:10.557Z,70.89
2022-10-13T15:50:42.330Z,70.54
2022-10-13T15:53:11.219Z,70.88
2022-10-13T15:55:40.989Z,71.32
2022-10-13T15:58:13.736Z,71.10
2022-10-13T16:00:44.911Z,70.90
2022-10-13T16:03:18.883Z,71.06
2022-10-13T16:05:48.747Z,71.68
2022-10-13T16:08:17.566Z,71.41
2022-10-13T16:10:46.463Z,71.52
2022-10-13T16:13:16.004Z,71.99
2022-10-13T16:15:44.862Z,72.02
2022-10-13T16:18:13.665Z,72.04
2022-10-13T16:20:45.878Z,71.79
2022-10-13T16:23:14.679Z,71.80
2022-10-13T16:25:43.517Z,72.25
2022-10-13T16:28:12.406Z,72.19
2022-10-13T16:30:41.787Z,72.26
2022-10-13T16:33:10.679Z,71.72
2022-10-13T16:35:39.657Z,72.29
2022-10-13T16:38:08.469Z,71.76
2022-10-13T16:40:39.714Z,72.36
2022-10-13T16:43:08.679Z,72.38
2022-10-13T16:45:58.592Z,72.53
2022-10-13T16:48:28.627Z,72.50
2022-10-13T16:50:57.526Z,72.25
2022-10-13T16:53:27.060Z,72.43
2022-10-13T16:55:55.884Z,72.01
2022-10-13T16:58:24.832Z,72.43
2022-10-13T17:00:54.338Z,72.39
2022-10-13T17:03:23.329Z,72.28
2022-10-13T17:05:53.963Z,72.57
2022-10-13T17:08:22.980Z,72.36
2022-10-13T17:10:57.478Z,72.35
2022-10-13T17:13:27.436Z,72.14
2022-10-13T17:15:57.901Z,72.48
2022-10-13T17:18:28.625Z,71.83
2022-10-13T17:20:59.979Z,71.96
2022-10-13T17:23:30.377Z,72.05
2022-10-13T17:26:04.706Z,72.26
2022-10-13T17:28:34.997Z,72.24
2022-10-13T17:31:14.150Z,72.51
2022-10-13T17:33:43.906Z,72.10
2022-10-13T17:36:20.729Z,72.22
2022-10-13T17:38:50.848Z,72.20
2022-10-13T17:41:20.692Z,72.46
2022-10-13T17:43:52.064Z,72.45
2022-10-13T17:46:36.156Z,72.52
2022-10-13T17:49:08.071Z,72.18
2022-10-13T17:51:37.015Z,72.68
2022-10-13T17:54:09.091Z,72.20
2022-10-13T17:56:40.388Z,72.07
2022-10-13T17:59:10.488Z,71.90
2022-10-13T18:01:42.666Z,72.23
2022-10-13T18:04:17.623Z,71.80
2022-10-13T18:06:47.078Z,71.94
2022-10-13T18:09:19.589Z,71.95
2022-10-13T18:11:51.053Z,71.96
2022-10-13T18:14:21.941Z,72.11
2022-10-13T18:16:52.192Z,72.34
2022-10-13T18:19:22.064Z,72.08
2022-10-13T18:21:53.380Z,72.28
2022-10-13T18:24:22.367Z,71.83
2022-10-13T18:26:51.228Z,71.84
2022-10-13T18:29:20.567Z,72.03
2022-10-13T18:31:49.435Z,72.32
2022-10-13T18:34:18.864Z,72.06
2022-10-13T18:36:50.925Z,71.93
2022-10-13T18:39:29.867Z,72.25
2022-10-13T18:41:58.818Z,71.79
2022-10-13T18:44:36.034Z,72.25
2022-10-13T18:47:05.021Z,71.99
2022-10-13T18:49:34.103Z,72.32
2022-10-13T18:52:03.375Z,72.42
2022-10-13T18:54:32.340Z,72.80
2022-10-13T18:57:01.147Z,72.43
2022-10-13T18:59:29.968Z,72.97
2022-10-13T19:01:59.655Z,72.64
2022-10-13T19:04:28.782Z,73.09
2022-10-13T19:06:57.909Z,72.63
2022-10-13T19:09:27.086Z,72.63
2022-10-13T19:11:58.680Z,73.09
2022-10-13T19:14:28.183Z,73.10
2022-10-13T19:17:01.586Z,72.50
2022-10-13T19:19:31.557Z,72.50
2022-10-13T19:22:02.799Z,72.75
2022-10-13T19:24:31.862Z,72.63
2022-10-13T19:27:00.644Z,73.05
2022-10-13T19:29:31.094Z,73.00
2022-10-13T19:32:01.531Z,72.81
2022-10-13T19:34:30.473Z,72.73
2022-10-13T19:37:02.333Z,72.56
2022-10-13T19:39:31.315Z,72.59
2022-10-13T19:42:00.171Z,73.07
2022-10-13T19:44:29.564Z,73.22
2022-10-13T19:46:58.508Z,73.29
2022-10-13T19:49:27.455Z,73.18
2022-10-13T19:51:56.782Z,73.39
2022-10-13T19:54:28.968Z,73.34
2022-10-13T19:57:00.339Z,73.31
2022-10-13T19:59:29.124Z,73.19
2022-10-13T20:01:58.600Z,73.48
2022-10-13T20:04:27.516Z,73.41
2022-10-13T20:06:56.406Z,73.26
2022-10-13T20:09:25.222Z,73.13
2022-10-13T20:11:54.045Z,73.41
2022-10-13T20:14:23.158Z,73.16
2022-10-13T20:16:52.141Z,73.32
2022-10-13T20:19:21.151Z,73.43
2022-10-13T20:21:52.182Z,73.21
2022-10-13T20:24:24.863Z,73.58
2022-10-13T20:26:54.949Z,73.60
2022-10-13T20:29:24.976Z,73.38
2022-10-13T20:31:53.788Z,73.49
2022-10-13T20:34:22.522Z,73.38
2022-10-13T20:36:51.965Z,73.56
2022-10-13T20:39:27.009Z,73.80
2022-10-13T20:41:59.049Z,73.41
2022-10-13T20:44:28.054Z,73.69
2022-10-13T20:46:56.930Z,73.79
2022-10-13T20:49:26.456Z,73.36
2022-10-13T20:51:55.695Z,73.79
2022-10-13T20:54:24.551Z,73.69
2022-10-13T20:56:53.578Z,73.82
2022-10-13T20:59:22.432Z,73.92
2022-10-13T21:01:52.543Z,74.13
2022-10-13T21:04:21.588Z,73.89
2022-10-13T21:06:50.505Z,74.08
2022-10-13T21:09:19.371Z,74.42
2022-10-13T21:11:48.249Z,74.37
2022-10-13T21:14:17.042Z,74.65
2022-10-13T21:16:45.874Z,74.73
2022-10-13T21:19:15.666Z,74.45
2022-10-13T21:21:44.683Z,74.73
2022-10-13T21:24:13.470Z,74.26
2022-10-13T21:26:42.404Z,74.27
2022-10-13T21:29:15.677Z,74.76
2022-10-13T21:31:44.584Z,73.95
2022-10-13T21:34:13.994Z,74.10
2022-10-13T21:36:45.078Z,74.63
2022-10-13T21:39:15.275Z,74.22
2022-10-13T21:41:44.075Z,73.98
2022-10-13T21:44:15.407Z,74.42
2022-10-13T21:46:44.235Z,73.78
2022-10-13T21:49:13.064Z,73.88
2022-10-13T21:51:41.836Z,74.11
2022-10-13T21:54:14.069Z,74.13
2022-10-13T21:56:43.228Z,73.85
2022-10-13T21:59:13.506Z,74.29
2022-10-13T22:01:44.703Z,73.82
2022-10-13T22:04:16.645Z,73.93
2022-10-13T22:06:45.570Z,74.15
2022-10-13T22:09:15.334Z,73.82
2022-10-13T22:11:44.984Z,73.81
2022-10-13T22:14:14.272Z,74.06
2022-10-13T22:16:46.132Z,73.88
2022-10-13T22:19:16.400Z,74.09
2022-10-13T22:21:49.092Z,73.89
2022-10-13T22:24:20.526Z,73.79
2022-10-13T22:26:50.655Z,74.11
2022-10-13T22:29:21.855Z,73.97
2022-10-13T22:31:52.082Z,73.88
2022-10-13T22:34:20.935Z,74.29
2022-10-13T22:36:49.747Z,74.45
2022-10-13T22:39:18.646Z,74.45
2022-10-13T22:41:47.560Z,74.48
2022-10-13T22:44:16.534Z,74.39
2022-10-13T22:46:45.320Z,73.80
2022-10-13T22:49:15.301Z,74.29
2022-10-13T22:51:44.151Z,74.07
2022-10-13T22:54:13.094Z,74.52
2022-10-13T22:56:42.386Z,74.66
2022-10-13T22:59:12.788Z,74.35
2022-10-13T23:01:42.609Z,74.04
2022-10-13T23:04:11.664Z,74.18
2022-10-13T23:06:40.683Z,74.34
2022-10-13T23:09:14.308Z,74.87
2022-10-13T23:11:43.414Z,74.19
2022-10-13T23:14:19.776Z,74.31
2022-10-13T23:16:48.721Z,74.55
2022-10-13T23:19:17.566Z,74.43
2022-10-13T23:21:46.390Z,74.58
2022-10-13T23:24:15.390Z,74.68
2022-10-13T23:26:44.386Z,74.82
2022-10-13T23:29:13.153Z,75.15
2022-10-13T23:31:41.955Z,75.36
2022-10-13T23:34:11.119Z,75.71
2022-10-13T23:36:39.997Z,75.04
2022-10-13T23:39:08.841Z,75.00
2022-10-13T23:41:38.642Z,75.05
2022-10-13T23:44:07.575Z,75.05
2022-10-13T23:46:36.360Z,75.53
2022-10-13T23:49:05.233Z,75.43
2022-10-13T23:51:34.308Z,75.12
2022-10-13T23:54:03.522Z,75.15
2022-10-13T23:56:32.365Z,75.35
2022-10-13T23:59:02.031Z,75.39
